createdAt,value
2017-11-12T00:00:19.777Z,5.23
2017-11-12T00:02:47.743Z,5.22
2017-11-12T00:05:15.703Z,5.18
2017-11-12T00:07:43.618Z,5.15
2017-11-12T00:10:11.602Z,5.14
2017-11-12T00:12:39.545Z,5.05
2017-11-12T00:15:07.861Z,5.06
2017-11-12T00:17:35.873Z,5.06
2017-11-12T00:20:03.787Z,5.06
2017-11-12T00:22:31.694Z,5.03
2017-11-12T00:24:59.634Z,5.01
2017-11-12T00:27:27.534Z,5.00
2017-11-12T00:29:55.508Z,4.97
2017-11-12T00:32:23.456Z,4.96
2017-11-12T00:34:51.373Z,4.93
2017-11-12T00:37:19.305Z,4.92
2017-11-12T00:39:47.208Z,4.90
2017-11-12T00:42:15.140Z,4.88
2017-11-12T00:44:43.069Z,4.87
2017-11-12T00:47:11.099Z,4.81
2017-11-12T00:49:39.454Z,4.75
2017-11-12T00:52:07.369Z,4.80
2017-11-12T00:54:35.270Z,4.87
2017-11-12T00:57:03.205Z,4.91
2017-11-12T00:59:31.133Z,4.93
2017-11-12T01:01:59.504Z,4.99
2017-11-12T01:04:27.834Z,4.96
2017-11-12T01:06:55.777Z,5.09
2017-11-12T01:09:23.728Z,5.14
2017-11-12T01:11:51.689Z,5.10
2017-11-12T01:14:19.623Z,5.03
2017-11-12T01:16:47.525Z,5.09
2017-11-12T01:19:15.496Z,5.08
2017-11-12T01:21:43.466Z,5.05
2017-11-12T01:24:11.396Z,5.09
2017-11-12T01:26:39.426Z,5.08
2017-11-12T01:29:07.338Z,5.13
2017-11-12T01:31:35.236Z,5.20
2017-11-12T01:34:03.317Z,5.16
2017-11-12T01:36:31.213Z,5.09
2017-11-12T01:38:59.556Z,4.96
2017-11-12T01:41:27.475Z,5.03
2017-11-12T01:43:55.405Z,4.99
2017-11-12T01:46:23.482Z,4.95
2017-11-12T01:48:51.827Z,4.95
2017-11-12T01:51:19.756Z,4.99
2017-11-12T01:53:47.709Z,4.96
2017-11-12T01:56:16.024Z,4.89
2017-11-12T01:58:43.948Z,4.86
2017-11-12T02:01:12.258Z,4.85
2017-11-12T02:03:40.191Z,4.93
2017-11-12T02:06:08.544Z,5.03
2017-11-12T02:08:36.455Z,5.02
2017-11-12T02:11:04.381Z,4.99
2017-11-12T02:13:32.354Z,5.01
2017-11-12T02:16:00.333Z,4.95
2017-11-12T02:18:28.299Z,4.85
2017-11-12T02:20:56.224Z,4.85
2017-11-12T02:23:24.225Z,4.81
2017-11-12T02:25:52.138Z,4.80
2017-11-12T02:28:20.097Z,4.71
2017-11-12T02:30:48.041Z,4.66
2017-11-12T02:33:15.950Z,4.57
2017-11-12T02:35:43.862Z,4.56
2017-11-12T02:38:11.782Z,4.50
2017-11-12T02:40:39.745Z,4.52
2017-11-12T02:43:07.667Z,4.47
2017-11-12T02:45:35.576Z,4.42
2017-11-12T02:48:03.913Z,4.40
2017-11-12T02:50:31.886Z,4.43
2017-11-12T02:52:59.823Z,4.44
2017-11-12T02:55:27.739Z,4.37
2017-11-12T02:57:56.070Z,4.31
2017-11-12T03:00:23.988Z,4.28
2017-11-12T03:02:52.375Z,4.31
2017-11-12T03:05:20.674Z,4.28
2017-11-12T03:07:48.588Z,4.27
2017-11-12T03:10:16.515Z,4.19
2017-11-12T03:12:44.421Z,4.17
2017-11-12T03:15:12.328Z,4.22
2017-11-12T03:17:40.257Z,4.21
2017-11-12T03:20:08.793Z,4.16
2017-11-12T03:22:36.718Z,4.15
2017-11-12T03:25:04.639Z,4.11
2017-11-12T03:27:32.606Z,4.07
2017-11-12T03:30:00.517Z,4.00
2017-11-12T03:32:29.302Z,3.90
2017-11-12T03:34:57.219Z,3.92
2017-11-12T03:37:25.145Z,3.82
2017-11-12T03:39:53.059Z,3.78
2017-11-12T03:42:20.981Z,3.81
2017-11-12T03:44:48.884Z,3.71
2017-11-12T03:47:16.810Z,3.80
2017-11-12T03:49:44.715Z,3.80
2017-11-12T03:52:13.071Z,3.92
2017-11-12T03:54:40.981Z,3.90
2017-11-12T03:57:09.007Z,3.87
2017-11-12T03:59:36.978Z,3.95
2017-11-12T04:02:04.903Z,3.99
2017-11-12T04:04:32.842Z,3.90
2017-11-12T04:07:00.778Z,3.94
2017-11-12T04:09:28.745Z,3.96
2017-11-12T04:11:56.658Z,3.96
2017-11-12T04:14:24.604Z,3.89
2017-11-12T04:19:43.737Z,3.89
2017-11-12T04:22:11.740Z,3.93
2017-11-12T04:24:39.645Z,3.93
2017-11-12T04:27:07.602Z,3.98
2017-11-12T04:29:35.533Z,3.94
2017-11-12T04:32:03.441Z,3.97
2017-11-12T04:34:31.374Z,3.99
2017-11-12T04:36:59.347Z,4.04
2017-11-12T04:39:27.245Z,4.08
2017-11-12T04:41:55.192Z,4.17
2017-11-12T04:44:23.480Z,4.16
2017-11-12T04:46:51.798Z,4.19
2017-11-12T04:49:19.816Z,4.22
2017-11-12T04:51:48.125Z,4.23
2017-11-12T04:54:16.151Z,4.37
2017-11-12T04:56:44.535Z,4.41
2017-11-12T04:59:12.442Z,4.43
2017-11-12T05:01:40.463Z,4.31
2017-11-12T05:04:08.366Z,4.29
2017-11-12T05:06:36.660Z,4.30
2017-11-12T05:09:04.570Z,4.29
2017-11-12T05:11:32.549Z,4.31
2017-11-12T05:14:00.454Z,4.30
2017-11-12T05:16:28.383Z,4.29
2017-11-12T05:18:56.288Z,4.29
2017-11-12T05:21:24.214Z,4.23
2017-11-12T05:23:52.108Z,4.19
2017-11-12T05:26:20.021Z,4.19
2017-11-12T05:28:47.934Z,4.23
2017-11-12T05:31:16.250Z,4.12
2017-11-12T05:33:44.166Z,4.24
2017-11-12T05:36:12.087Z,4.24
2017-11-12T05:38:39.994Z,4.23
2017-11-12T05:41:07.961Z,4.29
2017-11-12T05:43:35.931Z,4.31
2017-11-12T05:46:03.844Z,4.20
2017-11-12T05:48:31.753Z,4.21
2017-11-12T05:50:59.669Z,4.21
2017-11-12T05:53:27.976Z,4.16
2017-11-12T05:55:56.597Z,4.10
2017-11-12T05:58:24.500Z,4.03
2017-11-12T06:00:52.798Z,4.08
2017-11-12T06:03:20.706Z,4.15
2017-11-12T06:05:48.633Z,4.07
2017-11-12T06:08:16.538Z,4.07
2017-11-12T06:10:44.454Z,4.07
2017-11-12T06:13:12.349Z,4.01
2017-11-12T06:15:40.273Z,4.01
2017-11-12T06:18:08.569Z,4.05
2017-11-12T06:20:36.470Z,3.97
2017-11-12T06:23:04.377Z,3.99
2017-11-12T06:25:32.292Z,4.04
2017-11-12T06:28:00.201Z,3.97
2017-11-12T06:30:28.124Z,3.93
2017-11-12T06:32:56.032Z,3.79
2017-11-12T06:35:23.943Z,3.71
2017-11-12T06:37:51.889Z,3.75
2017-11-12T06:40:20.193Z,3.73
2017-11-12T06:42:48.226Z,3.64
2017-11-12T06:45:16.124Z,3.60
2017-11-12T06:47:44.022Z,3.66
2017-11-12T06:50:11.933Z,3.53
2017-11-12T06:52:39.860Z,3.50
2017-11-12T06:55:07.766Z,3.62
2017-11-12T06:57:35.678Z,3.78
2017-11-12T07:00:03.597Z,3.86
2017-11-12T07:02:31.496Z,3.96
2017-11-12T07:04:59.788Z,4.45
2017-11-12T07:07:27.814Z,5.10
2017-11-12T07:09:55.775Z,5.81
2017-11-12T07:12:24.240Z,6.44
2017-11-12T07:14:52.225Z,6.97
2017-11-12T07:17:20.138Z,7.59
2017-11-12T07:19:48.062Z,8.23
2017-11-12T07:22:16.026Z,8.76
2017-11-12T07:24:43.999Z,9.55
2017-11-12T07:27:11.978Z,10.42
2017-11-12T07:29:39.943Z,11.14
2017-11-12T07:32:07.926Z,11.70
2017-11-12T07:34:36.234Z,12.30
2017-11-12T07:37:04.254Z,12.12
2017-11-12T07:39:32.172Z,11.63
2017-11-12T07:42:00.086Z,11.17
2017-11-12T07:44:28.001Z,10.51
2017-11-12T07:46:56.048Z,10.11
2017-11-12T07:49:24.358Z,9.65
2017-11-12T07:51:52.277Z,9.43
2017-11-12T07:54:20.245Z,9.31
2017-11-12T07:56:48.213Z,9.15
2017-11-12T07:59:16.114Z,9.22
2017-11-12T08:01:44.022Z,8.96
2017-11-12T08:04:11.928Z,8.88
2017-11-12T08:06:39.843Z,8.94
2017-11-12T08:09:07.815Z,8.68
2017-11-12T08:11:35.878Z,8.49
2017-11-12T08:14:03.798Z,8.60
2017-11-12T08:16:31.704Z,8.42
2017-11-12T08:18:59.681Z,8.21
2017-11-12T08:21:27.655Z,7.91
2017-11-12T08:23:55.555Z,7.73
2017-11-12T08:26:23.589Z,7.70
2017-11-12T08:28:51.501Z,7.72
2017-11-12T08:31:19.473Z,7.44
2017-11-12T08:33:47.410Z,7.32
2017-11-12T08:36:15.311Z,7.54
2017-11-12T08:38:43.210Z,7.43
2017-11-12T08:41:11.152Z,7.68
2017-11-12T08:43:39.124Z,7.58
2017-11-12T08:46:07.046Z,7.85
2017-11-12T08:48:34.966Z,7.85
2017-11-12T08:51:03.289Z,8.09
2017-11-12T08:53:31.210Z,8.39
2017-11-12T08:55:59.518Z,8.28
2017-11-12T08:58:27.477Z,8.21
2017-11-12T09:00:55.385Z,7.94
2017-11-12T09:03:23.358Z,8.03
2017-11-12T09:05:51.361Z,8.00
2017-11-12T09:08:19.265Z,8.26
2017-11-12T09:10:47.188Z,8.42
2017-11-12T09:13:15.092Z,8.64
2017-11-12T09:15:42.998Z,8.85
2017-11-12T09:18:10.924Z,9.01
2017-11-12T09:20:38.834Z,9.18
2017-11-12T09:23:06.757Z,9.06
2017-11-12T09:25:34.676Z,8.88
2017-11-12T09:28:02.598Z,8.96
2017-11-12T09:30:30.514Z,9.13
2017-11-12T09:32:58.414Z,9.20
2017-11-12T09:35:26.776Z,9.08
2017-11-12T09:37:54.697Z,8.99
2017-11-12T09:40:22.613Z,8.87
2017-11-12T09:42:50.522Z,8.90
2017-11-12T09:45:18.488Z,8.53
2017-11-12T09:47:46.401Z,8.62
2017-11-12T09:50:14.393Z,8.62
2017-11-12T09:52:42.294Z,8.47
2017-11-12T09:55:10.205Z,8.59
2017-11-12T09:57:38.206Z,8.78
2017-11-12T10:00:06.502Z,8.75
2017-11-12T10:02:34.395Z,8.76
2017-11-12T10:05:02.304Z,8.76
2017-11-12T10:07:30.276Z,8.98
2017-11-12T10:09:58.175Z,9.26
2017-11-12T10:12:26.105Z,9.28
2017-11-12T10:14:54.013Z,9.29
2017-11-12T10:17:21.946Z,9.27
2017-11-12T10:19:49.913Z,9.28
2017-11-12T10:22:17.823Z,9.46
2017-11-12T10:24:45.796Z,9.50
2017-11-12T10:27:13.713Z,9.56
2017-11-12T10:29:41.626Z,9.52
2017-11-12T10:32:09.538Z,9.21
2017-11-12T10:34:37.445Z,9.59
2017-11-12T10:37:05.752Z,9.94
2017-11-12T10:39:33.674Z,10.04
2017-11-12T10:42:01.581Z,9.66
2017-11-12T10:44:29.508Z,9.38
2017-11-12T10:46:57.421Z,9.21
2017-11-12T10:49:25.345Z,9.30
2017-11-12T10:51:53.709Z,8.80
2017-11-12T10:54:21.669Z,8.86
2017-11-12T10:56:49.758Z,9.18
2017-11-12T10:59:17.669Z,9.32
2017-11-12T11:01:45.603Z,9.20
2017-11-12T11:04:13.913Z,9.38
2017-11-12T11:06:41.932Z,9.41
2017-11-12T11:09:09.919Z,8.98
2017-11-12T11:11:38.217Z,8.88
2017-11-12T11:14:06.146Z,9.00
2017-11-12T11:16:34.125Z,9.10
2017-11-12T11:19:02.080Z,9.00
2017-11-12T11:21:30.032Z,9.29
2017-11-12T11:23:58.051Z,9.42
2017-11-12T11:26:26.365Z,9.57
2017-11-12T11:28:54.266Z,9.43
2017-11-12T11:31:22.186Z,9.37
2017-11-12T11:33:50.162Z,9.46
2017-11-12T11:36:18.081Z,9.15
2017-11-12T11:38:45.982Z,9.02
2017-11-12T11:41:13.901Z,9.12
2017-11-12T11:43:41.892Z,8.74
2017-11-12T11:46:09.808Z,8.46
2017-11-12T11:48:37.727Z,8.74
2017-11-12T11:51:05.650Z,8.80
2017-11-12T11:53:33.574Z,8.87
2017-11-12T11:56:01.600Z,8.99
2017-11-12T11:58:29.508Z,8.80
2017-11-12T12:00:57.819Z,8.44
2017-11-12T12:03:25.726Z,8.41
2017-11-12T12:05:53.626Z,8.71
2017-11-12T12:08:21.952Z,8.89
2017-11-12T12:10:49.857Z,8.65
2017-11-12T12:13:17.785Z,8.88
2017-11-12T12:15:45.692Z,8.94
2017-11-12T12:18:13.659Z,8.81
2017-11-12T12:20:41.575Z,8.85
2017-11-12T12:23:09.483Z,8.56
2017-11-12T12:25:37.402Z,8.46
2017-11-12T12:28:05.308Z,8.44
2017-11-12T12:30:33.241Z,8.38
2017-11-12T12:33:01.213Z,8.43
2017-11-12T12:35:29.124Z,8.39
2017-11-12T12:37:57.058Z,8.22
2017-11-12T12:40:24.959Z,8.24
2017-11-12T12:42:52.882Z,8.36
2017-11-12T12:45:20.799Z,8.26
2017-11-12T12:47:48.820Z,8.35
2017-11-12T12:50:16.770Z,8.49
2017-11-12T12:52:44.669Z,8.57
2017-11-12T12:55:12.589Z,8.47
2017-11-12T12:57:40.910Z,8.13
2017-11-12T13:00:08.835Z,8.01
2017-11-12T13:02:37.165Z,7.94
2017-11-12T13:05:05.173Z,7.82
2017-11-12T13:07:33.082Z,7.86
2017-11-12T13:10:00.993Z,7.92
2017-11-12T13:12:29.341Z,7.74
2017-11-12T13:14:57.289Z,7.72
2017-11-12T13:17:25.202Z,7.49
2017-11-12T13:19:53.178Z,7.43
2017-11-12T13:22:21.101Z,7.26
2017-11-12T13:24:49.009Z,7.18
2017-11-12T13:27:16.929Z,7.16
2017-11-12T13:29:44.842Z,7.19
2017-11-12T13:32:12.761Z,7.23
2017-11-12T13:34:40.669Z,7.33
2017-11-12T13:37:08.653Z,7.31
2017-11-12T13:39:36.684Z,7.43
2017-11-12T13:42:04.593Z,7.46
2017-11-12T13:44:32.567Z,7.53
2017-11-12T13:47:00.483Z,7.50
2017-11-12T13:49:28.393Z,7.44
2017-11-12T13:51:56.361Z,7.54
2017-11-12T13:54:24.352Z,7.41
2017-11-12T13:56:52.366Z,7.10
2017-11-12T13:59:20.291Z,7.17
2017-11-12T14:01:48.609Z,7.20
2017-11-12T14:04:16.531Z,7.28
2017-11-12T14:06:44.857Z,7.28
2017-11-12T14:09:12.756Z,7.35
2017-11-12T14:11:40.797Z,7.32
2017-11-12T14:14:08.983Z,7.38
2017-11-12T14:16:36.905Z,7.23
2017-11-12T14:19:05.261Z,7.11
2017-11-12T14:21:33.580Z,7.03
2017-11-12T14:24:01.516Z,6.94
2017-11-12T14:26:29.845Z,6.85
2017-11-12T14:28:57.856Z,6.84
2017-11-12T14:31:25.754Z,6.82
2017-11-12T14:33:54.048Z,6.84
2017-11-12T14:36:22.094Z,6.72
2017-11-12T14:38:50.039Z,6.67
2017-11-12T14:41:18.018Z,6.69
2017-11-12T14:43:45.961Z,6.61
2017-11-12T14:46:13.868Z,6.58
2017-11-12T14:48:42.194Z,6.57
2017-11-12T14:51:10.203Z,6.40
2017-11-12T14:53:38.560Z,6.43
2017-11-12T14:56:06.489Z,6.44
2017-11-12T14:58:34.464Z,6.51
2017-11-12T15:01:02.433Z,6.52
2017-11-12T15:03:30.338Z,6.57
2017-11-12T15:05:58.268Z,6.53
2017-11-12T15:08:26.278Z,6.63
2017-11-12T15:10:54.170Z,6.59
2017-11-12T15:13:22.488Z,6.79
2017-11-12T15:15:50.428Z,6.69
2017-11-12T15:18:18.762Z,6.70
2017-11-12T15:20:46.714Z,6.57
2017-11-12T15:23:14.726Z,6.62
2017-11-12T15:25:43.100Z,6.59
2017-11-12T15:28:11.496Z,6.61
2017-11-12T15:30:39.803Z,6.56
2017-11-12T15:33:07.711Z,6.57
2017-11-12T15:35:35.613Z,6.46
2017-11-12T15:38:03.543Z,6.42
2017-11-12T15:40:31.460Z,6.32
2017-11-12T15:42:59.376Z,6.27
2017-11-12T15:45:27.291Z,6.31
2017-11-12T15:47:55.210Z,6.28
2017-11-12T15:50:23.128Z,6.28
2017-11-12T15:52:51.078Z,6.24
2017-11-12T15:55:19.125Z,6.28
2017-11-12T15:57:47.042Z,6.30
2017-11-12T16:00:14.958Z,6.34
2017-11-12T16:02:42.893Z,6.39
2017-11-12T16:05:10.804Z,6.34
2017-11-12T16:07:38.774Z,6.24
2017-11-12T16:10:07.146Z,6.28
2017-11-12T16:12:35.082Z,6.19
2017-11-12T16:15:03.016Z,6.28
2017-11-12T16:17:30.949Z,6.23
2017-11-12T16:19:58.998Z,6.24
2017-11-12T16:22:26.902Z,6.34
2017-11-12T16:24:54.793Z,6.43
2017-11-12T16:27:22.706Z,6.43
2017-11-12T16:29:50.624Z,6.25
2017-11-12T16:32:18.990Z,6.23
2017-11-12T16:34:47.290Z,6.36
2017-11-12T16:37:15.199Z,6.37
2017-11-12T16:39:43.106Z,6.35
2017-11-12T16:42:11.404Z,6.33
2017-11-12T16:44:39.337Z,6.27
2017-11-12T16:47:07.249Z,6.26
2017-11-12T16:49:35.186Z,6.26
2017-11-12T16:52:03.512Z,6.39
2017-11-12T16:54:31.450Z,6.45
2017-11-12T16:56:59.540Z,6.35
2017-11-12T16:59:27.441Z,6.31
2017-11-12T17:01:55.340Z,6.28
2017-11-12T17:04:23.894Z,6.25
2017-11-12T17:06:51.789Z,6.27
2017-11-12T17:09:20.127Z,6.19
2017-11-12T17:11:48.050Z,6.30
2017-11-12T17:14:15.957Z,6.44
2017-11-12T17:16:43.957Z,6.37
2017-11-12T17:19:11.929Z,6.43
2017-11-12T17:21:39.900Z,6.25
2017-11-12T17:24:07.802Z,6.31
2017-11-12T17:26:35.733Z,6.37
2017-11-12T17:29:03.721Z,6.36
2017-11-12T17:31:32.031Z,6.30
2017-11-12T17:34:00.110Z,6.36
2017-11-12T17:36:28.065Z,6.33
2017-11-12T17:38:56.006Z,6.36
2017-11-12T17:41:24.319Z,6.33
2017-11-12T17:43:52.218Z,6.38
2017-11-12T17:46:20.147Z,6.40
2017-11-12T17:48:48.062Z,6.39
2017-11-12T17:51:15.962Z,6.42
2017-11-12T17:53:43.894Z,6.43
2017-11-12T17:56:12.209Z,6.47
2017-11-12T17:58:40.129Z,6.48
2017-11-12T18:01:08.484Z,6.34
2017-11-12T18:03:36.386Z,6.33
2017-11-12T18:06:04.370Z,6.39
2017-11-12T18:08:32.694Z,6.38
2017-11-12T18:11:00.623Z,6.41
2017-11-12T18:13:28.930Z,6.46
2017-11-12T18:15:56.885Z,6.49
2017-11-12T18:18:24.806Z,6.56
2017-11-12T18:20:52.714Z,6.63
2017-11-12T18:23:21.340Z,6.67
2017-11-12T18:25:49.262Z,6.67
2017-11-12T18:28:17.169Z,6.68
2017-11-12T18:30:45.082Z,6.66
2017-11-12T18:33:13.388Z,6.68
2017-11-12T18:35:41.339Z,6.65
2017-11-12T18:38:09.667Z,6.73
2017-11-12T18:40:37.603Z,6.79
2017-11-12T18:43:05.530Z,6.85
2017-11-12T18:45:33.429Z,6.83
2017-11-12T18:48:01.775Z,6.77
2017-11-12T18:50:29.681Z,6.81
2017-11-12T18:52:57.625Z,6.55
2017-11-12T18:55:25.920Z,6.55
2017-11-12T18:57:54.606Z,6.56
2017-11-12T19:00:23.420Z,6.57
2017-11-12T19:02:56.844Z,6.66
2017-11-12T19:05:30.444Z,6.64
2017-11-12T19:07:58.370Z,6.68
2017-11-12T19:10:26.271Z,6.64
2017-11-12T19:12:54.189Z,6.66
2017-11-12T19:15:22.085Z,6.57
2017-11-12T19:17:59.926Z,6.49
2017-11-12T19:20:27.866Z,6.38
2017-11-12T19:23:01.330Z,6.33
2017-11-12T19:25:29.665Z,6.23
2017-11-12T19:27:57.574Z,6.38
2017-11-12T19:30:25.870Z,6.40
2017-11-12T19:32:53.763Z,6.27
2017-11-12T19:35:21.688Z,6.26
2017-11-12T19:37:49.614Z,6.33
2017-11-12T19:40:17.538Z,6.32
2017-11-12T19:42:45.442Z,6.41
2017-11-12T19:45:13.378Z,6.41
2017-11-12T19:47:41.388Z,6.47
2017-11-12T19:50:09.285Z,6.39
2017-11-12T19:52:37.585Z,6.47
2017-11-12T19:55:05.602Z,6.60
2017-11-12T19:57:33.637Z,6.63
2017-11-12T20:00:01.647Z,6.62
2017-11-12T20:02:29.635Z,6.71
2017-11-12T20:04:57.992Z,6.82
2017-11-12T20:07:25.908Z,6.75
2017-11-12T20:09:53.826Z,6.90
2017-11-12T20:12:21.745Z,6.87
2017-11-12T20:14:49.658Z,6.82
2017-11-12T20:17:17.557Z,6.89
2017-11-12T20:19:45.873Z,6.94
2017-11-12T20:22:13.788Z,6.94
2017-11-12T20:24:41.706Z,6.94
2017-11-12T20:27:09.610Z,6.84
2017-11-12T20:29:37.509Z,6.89
2017-11-12T20:32:05.429Z,6.91
2017-11-12T20:34:33.429Z,6.92
2017-11-12T20:37:01.773Z,6.83
2017-11-12T20:39:29.681Z,6.87
2017-11-12T20:41:57.604Z,6.91
2017-11-12T20:44:25.521Z,6.85
2017-11-12T20:46:53.851Z,6.86
2017-11-12T20:49:21.764Z,6.73
2017-11-12T20:51:50.518Z,6.82
2017-11-12T20:54:18.414Z,6.79
2017-11-12T20:56:46.321Z,6.77
2017-11-12T20:59:14.260Z,6.79
2017-11-12T21:01:42.185Z,6.71
2017-11-12T21:04:11.558Z,6.73
2017-11-12T21:06:39.473Z,6.72
2017-11-12T21:09:07.824Z,6.71
2017-11-12T21:11:35.862Z,6.77
2017-11-12T21:14:03.797Z,6.85
2017-11-12T21:16:31.716Z,6.78
2017-11-12T21:19:00.412Z,6.73
2017-11-12T21:24:36.369Z,6.82
2017-11-12T21:27:09.945Z,6.79
2017-11-12T21:29:40.000Z,6.83
2017-11-12T21:32:08.345Z,6.86
2017-11-12T21:34:39.128Z,6.73
2017-11-12T21:37:07.493Z,6.80
2017-11-12T21:39:35.403Z,6.70
2017-11-12T21:42:03.327Z,6.78
2017-11-12T21:44:31.236Z,6.84
2017-11-12T21:46:59.165Z,6.66
2017-11-12T21:49:27.082Z,6.72
2017-11-12T21:51:55.052Z,6.65
2017-11-12T21:54:23.495Z,6.64
2017-11-12T21:56:51.398Z,6.68
2017-11-12T21:59:19.304Z,6.57
2017-11-12T22:01:47.214Z,6.60
2017-11-12T22:04:15.185Z,6.56
2017-11-12T22:06:43.187Z,6.52
2017-11-12T22:09:11.493Z,6.54
2017-11-12T22:11:39.413Z,6.52
2017-11-12T22:14:07.397Z,6.46
2017-11-12T22:16:35.685Z,6.50
2017-11-12T22:19:04.010Z,6.55
2017-11-12T22:21:31.927Z,6.45
2017-11-12T22:24:00.474Z,6.38
2017-11-12T22:26:28.388Z,6.40
2017-11-12T22:28:56.301Z,6.33
2017-11-12T22:31:24.407Z,6.38
2017-11-12T22:33:52.738Z,6.40
2017-11-12T22:36:20.744Z,6.42
2017-11-12T22:38:49.146Z,6.38
2017-11-12T22:41:17.049Z,6.32
2017-11-12T22:43:44.996Z,6.24
2017-11-12T22:46:13.530Z,6.29
2017-11-12T22:48:41.426Z,6.23
2017-11-12T22:51:09.737Z,6.19
2017-11-12T22:53:37.644Z,6.25
2017-11-12T22:56:05.681Z,6.22
2017-11-12T22:58:33.693Z,6.14
2017-11-12T23:01:01.598Z,6.20
2017-11-12T23:03:29.517Z,6.25
2017-11-12T23:05:57.433Z,6.24
2017-11-12T23:08:25.465Z,6.27
2017-11-12T23:10:53.362Z,6.25
2017-11-12T23:13:21.648Z,6.18
2017-11-12T23:15:49.561Z,6.16
2017-11-12T23:18:17.465Z,6.07
2017-11-12T23:20:45.792Z,6.02
2017-11-12T23:23:13.686Z,5.87
2017-11-12T23:25:41.590Z,5.96
2017-11-12T23:28:09.628Z,5.95
2017-11-12T23:30:37.530Z,5.90
2017-11-12T23:33:05.461Z,5.94
2017-11-12T23:38:25.232Z,5.92
2017-11-12T23:40:53.870Z,5.91
2017-11-12T23:43:22.153Z,5.89
2017-11-12T23:45:50.065Z,5.77
2017-11-12T23:48:17.975Z,5.85
2017-11-12T23:50:46.304Z,5.76
2017-11-12T23:53:14.219Z,5.76
2017-11-12T23:55:42.153Z,5.79
2017-11-12T23:58:10.137Z,5.73
